createdAt,value
2019-04-20T00:02:53.482Z,183.23
2019-04-20T00:07:01.919Z,183.00
2019-04-20T00:11:19.836Z,180.87
2019-04-20T00:15:24.080Z,181.87
2019-04-20T00:19:40.737Z,182.80
2019-04-20T00:23:51.097Z,178.60
2019-04-20T00:28:24.058Z,179.90
2019-04-20T00:32:34.300Z,181.23
2019-04-20T00:36:30.740Z,179.30
2019-04-20T00:40:41.289Z,183.37
2019-04-20T00:45:00.667Z,176.73
2019-04-20T00:49:24.268Z,181.17
2019-04-20T00:53:26.188Z,179.30
2019-04-20T00:57:37.483Z,181.50
2019-04-20T01:02:01.070Z,183.40
2019-04-20T01:06:23.445Z,182.80
2019-04-20T01:10:21.505Z,181.17
2019-04-20T01:14:42.767Z,179.03
2019-04-20T01:18:47.087Z,182.63
2019-04-20T01:23:02.757Z,179.67
2019-04-20T01:27:25.519Z,181.60
2019-04-20T01:31:29.594Z,183.47
2019-04-20T01:35:48.853Z,184.33
2019-04-20T01:39:52.006Z,181.37
2019-04-20T01:43:56.769Z,178.77
2019-04-20T01:48:08.332Z,180.57
2019-04-20T01:52:26.888Z,179.93
2019-04-20T01:56:47.637Z,180.30
2019-04-20T02:01:14.957Z,182.23
2019-04-20T02:05:24.740Z,180.67
2019-04-20T02:09:32.706Z,178.37
2019-04-20T02:13:49.926Z,177.87
2019-04-20T02:18:07.685Z,179.20
2019-04-20T02:22:22.959Z,179.23
2019-04-20T02:26:20.005Z,180.10
2019-04-20T02:31:04.655Z,178.63
2019-04-20T02:39:37.824Z,176.50
2019-04-20T02:43:58.043Z,178.60
2019-04-20T02:47:56.705Z,178.60
2019-04-20T02:52:15.184Z,178.53
2019-04-20T02:56:26.448Z,179.60
2019-04-20T03:04:25.764Z,181.70
2019-04-20T03:08:47.296Z,181.80
2019-04-20T03:12:59.666Z,183.57
2019-04-20T03:17:18.645Z,175.60
2019-04-20T03:21:27.320Z,175.33
2019-04-20T03:25:55.289Z,176.80
2019-04-20T03:30:22.888Z,177.87
2019-04-20T03:34:51.840Z,177.83
2019-04-20T03:38:26.274Z,181.30
2019-04-20T03:42:22.383Z,179.10
2019-04-20T03:46:41.947Z,175.13
2019-04-20T03:51:04.621Z,175.17
2019-04-20T03:55:23.968Z,176.57
2019-04-20T03:59:58.599Z,179.20
2019-04-20T04:04:10.483Z,177.23
2019-04-20T04:08:19.428Z,176.03
2019-04-20T04:12:54.687Z,175.83
2019-04-20T04:17:06.208Z,176.47
2019-04-20T04:21:27.142Z,175.10
2019-04-20T04:25:48.330Z,179.70
2019-04-20T04:29:56.940Z,175.43
2019-04-20T04:34:10.725Z,179.13
2019-04-20T04:38:27.152Z,180.83
2019-04-20T04:42:42.373Z,186.30
2019-04-20T04:46:33.854Z,180.60
2019-04-20T04:50:50.885Z,196.83
2019-04-20T04:55:09.559Z,182.03
2019-04-20T04:59:08.526Z,200.63
2019-04-20T05:03:35.831Z,192.13
2019-04-20T05:07:49.546Z,188.23
2019-04-20T05:11:44.950Z,180.17
2019-04-20T05:16:07.484Z,185.20
2019-04-20T05:20:24.207Z,188.17
2019-04-20T05:24:38.466Z,191.77
2019-04-20T05:28:48.243Z,194.67
2019-04-20T05:32:57.790Z,192.60
2019-04-20T05:37:28.413Z,190.40
2019-04-20T05:41:34.004Z,192.90
2019-04-20T05:45:41.614Z,194.23
2019-04-20T05:49:53.895Z,190.17
2019-04-20T05:54:13.852Z,195.33
2019-04-20T05:58:26.206Z,191.57
2019-04-20T06:02:37.726Z,195.47
2019-04-20T06:06:51.572Z,196.50
2019-04-20T06:11:04.469Z,193.03
2019-04-20T06:15:09.449Z,193.73
2019-04-20T06:19:32.013Z,193.93
2019-04-20T06:23:56.413Z,195.95
2019-04-20T06:28:04.251Z,194.00
2019-04-20T06:32:20.349Z,197.93
2019-04-20T06:36:32.125Z,194.07
2019-04-20T06:44:54.623Z,200.38
2019-04-20T06:49:11.851Z,193.60
2019-04-20T06:53:28.551Z,195.25
2019-04-20T06:57:36.252Z,193.67
2019-04-20T07:01:48.653Z,200.43
2019-04-20T07:06:06.468Z,201.32
2019-04-20T07:10:14.989Z,192.17
2019-04-20T07:14:04.854Z,194.33
2019-04-20T07:18:35.515Z,191.40
2019-04-20T07:23:02.310Z,199.03
2019-04-20T07:27:00.725Z,199.73
2019-04-20T07:31:13.082Z,194.93
2019-04-20T07:35:26.318Z,199.20
2019-04-20T07:39:46.619Z,203.20
2019-04-20T07:44:01.675Z,203.25
2019-04-20T07:48:11.295Z,203.73
2019-04-20T07:51:57.602Z,202.50
2019-04-20T07:56:32.606Z,197.55
2019-04-20T08:00:53.252Z,205.43
2019-04-20T08:04:56.249Z,208.07
2019-04-20T08:09:08.325Z,210.25
2019-04-20T08:13:32.014Z,199.87
2019-04-20T08:17:48.542Z,201.60
2019-04-20T08:21:47.305Z,205.30
2019-04-20T08:25:53.882Z,200.40
2019-04-20T08:30:09.234Z,204.20
2019-04-20T08:34:43.099Z,219.50
2019-04-20T08:43:10.773Z,207.62
2019-04-20T08:47:18.319Z,202.45
2019-04-20T08:51:25.905Z,199.82
2019-04-20T08:55:33.411Z,199.42
2019-04-20T08:59:32.370Z,203.10
2019-04-20T09:03:54.967Z,205.27
2019-04-20T09:08:06.941Z,203.60
2019-04-20T09:12:30.813Z,201.27
2019-04-20T09:16:26.888Z,204.05
2019-04-20T09:20:43.499Z,204.73
2019-04-20T09:25:07.469Z,202.80
2019-04-20T09:29:07.288Z,203.35
2019-04-20T09:33:41.745Z,199.95
2019-04-20T09:38:10.377Z,205.55
2019-04-20T09:42:18.995Z,205.98
2019-04-20T09:46:37.778Z,206.43
2019-04-20T09:51:02.352Z,208.68
2019-04-20T09:55:06.789Z,211.15
2019-04-20T09:59:22.052Z,209.52
2019-04-20T10:03:18.477Z,212.75
2019-04-20T10:07:33.676Z,215.52
2019-04-20T10:11:43.722Z,215.12
2019-04-20T10:15:53.829Z,216.33
2019-04-20T10:20:17.207Z,220.88
2019-04-20T10:24:20.864Z,214.97
2019-04-20T10:28:33.863Z,206.00
2019-04-20T10:32:47.169Z,196.50
2019-04-20T10:36:57.773Z,205.95
2019-04-20T10:41:14.871Z,214.17
2019-04-20T10:45:21.293Z,196.63
2019-04-20T10:49:33.335Z,197.30
2019-04-20T10:53:44.805Z,198.80
2019-04-20T10:57:59.652Z,200.15
2019-04-20T11:02:10.319Z,194.37
2019-04-20T11:06:22.671Z,201.77
2019-04-20T11:10:48.282Z,200.13
2019-04-20T11:14:45.769Z,190.50
2019-04-20T11:18:57.728Z,193.57
2019-04-20T11:23:08.502Z,196.53
2019-04-20T11:27:22.539Z,192.65
2019-04-20T11:31:36.358Z,197.55
2019-04-20T11:35:46.220Z,196.65
2019-04-20T11:39:57.161Z,192.18
2019-04-20T11:44:07.812Z,192.50
2019-04-20T11:48:19.202Z,194.55
2019-04-20T11:52:33.201Z,189.57
2019-04-20T11:56:47.088Z,186.50
2019-04-20T12:01:10.381Z,192.55
2019-04-20T12:05:29.862Z,189.77
2019-04-20T12:09:31.443Z,187.35
2019-04-20T12:13:42.733Z,196.75
2019-04-20T12:17:53.691Z,194.37
2019-04-20T12:22:05.642Z,190.38
2019-04-20T12:26:16.550Z,194.60
2019-04-20T12:30:29.888Z,192.50
2019-04-20T12:34:41.269Z,186.95
2019-04-20T12:38:52.911Z,192.65
2019-04-20T12:43:04.943Z,188.52
2019-04-20T12:47:17.462Z,190.10
2019-04-20T12:51:33.854Z,191.70
2019-04-20T12:55:40.833Z,191.20
2019-04-20T12:59:54.075Z,195.92
2019-04-20T13:04:07.473Z,203.65
2019-04-20T13:08:23.151Z,194.60
2019-04-20T13:12:32.212Z,188.47
2019-04-20T13:16:44.073Z,191.07
2019-04-20T13:20:58.083Z,191.75
2019-04-20T13:25:08.126Z,187.07
2019-04-20T13:29:19.280Z,199.12
2019-04-20T13:33:29.768Z,189.43
2019-04-20T13:37:43.455Z,189.43
2019-04-20T13:42:03.432Z,192.70
2019-04-20T13:46:07.161Z,187.55
2019-04-20T13:50:20.376Z,190.05
2019-04-20T13:54:31.697Z,190.45
2019-04-20T13:58:47.785Z,191.60
2019-04-20T14:03:07.023Z,195.07
2019-04-20T14:07:19.119Z,200.87
2019-04-20T14:11:31.503Z,189.37
2019-04-20T14:15:42.917Z,186.52
2019-04-20T14:19:53.386Z,186.12
2019-04-20T14:24:04.348Z,190.22
2019-04-20T14:28:15.420Z,187.12
2019-04-20T14:32:29.107Z,185.00
2019-04-20T14:36:39.422Z,187.97
2019-04-20T14:40:52.671Z,184.37
2019-04-20T14:45:06.791Z,185.60
2019-04-20T14:49:17.178Z,188.40
2019-04-20T14:53:29.398Z,190.55
2019-04-20T14:57:41.489Z,188.60
2019-04-20T15:01:56.749Z,196.43
2019-04-20T15:06:10.026Z,186.73
2019-04-20T15:10:20.617Z,187.82
2019-04-20T15:14:34.641Z,184.65
2019-04-20T15:18:49.110Z,185.73
2019-04-20T15:22:59.730Z,188.32
2019-04-20T15:27:10.262Z,188.17
2019-04-20T15:31:20.481Z,183.55
2019-04-20T15:35:33.398Z,187.93
2019-04-20T15:39:45.295Z,189.50
2019-04-20T15:43:57.396Z,182.55
2019-04-20T15:48:08.003Z,186.80
2019-04-20T15:52:24.495Z,186.10
2019-04-20T15:56:30.505Z,186.85
2019-04-20T16:00:42.544Z,187.37
2019-04-20T16:04:54.533Z,184.07
2019-04-20T16:09:06.494Z,189.95
2019-04-20T16:13:27.313Z,189.18
2019-04-20T16:17:36.394Z,184.60
2019-04-20T16:21:43.839Z,189.30
2019-04-20T16:25:59.613Z,185.48
2019-04-20T16:30:09.794Z,185.30
2019-04-20T16:34:21.270Z,185.78
2019-04-20T16:38:33.158Z,189.67
2019-04-20T16:42:44.308Z,189.37
2019-04-20T16:46:56.407Z,183.12
2019-04-20T16:51:06.942Z,186.35
2019-04-20T16:55:18.730Z,180.50
2019-04-20T16:59:32.512Z,186.85
2019-04-20T17:03:51.956Z,189.28
2019-04-20T17:07:55.365Z,186.57
2019-04-20T17:12:07.748Z,183.35
2019-04-20T17:16:19.628Z,183.90
2019-04-20T17:20:30.668Z,185.33
2019-04-20T17:24:40.952Z,188.60
2019-04-20T17:28:55.549Z,186.12
2019-04-20T17:33:14.055Z,188.42
2019-04-20T17:37:28.050Z,193.62
2019-04-20T17:41:59.412Z,188.32
2019-04-20T17:46:02.171Z,184.05
2019-04-20T17:50:27.041Z,188.55
2019-04-20T17:54:27.663Z,188.52
2019-04-20T17:58:40.041Z,185.07
2019-04-20T18:03:07.302Z,186.45
2019-04-20T18:07:32.442Z,184.45
2019-04-20T18:11:21.850Z,186.65
2019-04-20T18:15:45.399Z,188.10
2019-04-20T18:19:44.924Z,183.47
2019-04-20T18:23:56.260Z,184.20
2019-04-20T18:28:18.536Z,184.23
2019-04-20T18:32:27.451Z,183.32
2019-04-20T18:36:44.048Z,183.37
2019-04-20T18:41:00.987Z,184.97
2019-04-20T18:45:28.364Z,183.17
2019-04-20T18:49:37.859Z,183.47
2019-04-20T18:53:42.529Z,184.67
2019-04-20T18:57:49.328Z,181.80
2019-04-20T19:01:59.617Z,186.77
2019-04-20T19:06:11.198Z,181.43
2019-04-20T19:10:27.427Z,184.97
2019-04-20T19:15:03.404Z,182.80
2019-04-20T19:19:22.001Z,189.97
2019-04-20T19:23:23.108Z,183.30
2019-04-20T19:27:41.475Z,178.30
2019-04-20T19:32:07.374Z,185.20
2019-04-20T19:36:15.113Z,180.50
2019-04-20T19:40:28.693Z,187.20
2019-04-20T19:44:45.146Z,183.60
2019-04-20T19:48:52.703Z,186.10
2019-04-20T19:53:24.689Z,181.63
2019-04-20T19:57:25.471Z,183.03
2019-04-20T20:01:22.100Z,183.47
2019-04-20T20:05:40.884Z,188.03
2019-04-20T20:09:53.129Z,183.77
2019-04-20T20:14:05.402Z,181.53
2019-04-20T20:18:34.314Z,185.20
2019-04-20T20:22:37.819Z,182.03
2019-04-20T20:26:52.558Z,181.43
2019-04-20T20:31:11.153Z,201.53
2019-04-20T20:35:19.047Z,205.57
2019-04-20T20:39:27.623Z,183.67
2019-04-20T20:43:45.797Z,182.87
2019-04-20T20:48:04.996Z,182.40
2019-04-20T20:52:17.408Z,189.40
2019-04-20T20:56:22.090Z,185.43
2019-04-20T21:00:36.018Z,180.93
2019-04-20T21:04:37.828Z,187.93
2019-04-20T21:08:53.776Z,181.17
2019-04-20T21:13:06.571Z,184.17
2019-04-20T21:17:18.389Z,188.43
2019-04-20T21:21:42.241Z,181.87
2019-04-20T21:25:47.547Z,184.47
2019-04-20T21:29:56.912Z,181.60
2019-04-20T21:34:10.051Z,183.83
2019-04-20T21:38:21.778Z,197.70
2019-04-20T21:42:39.533Z,182.73
2019-04-20T21:46:49.215Z,179.40
2019-04-20T21:51:16.634Z,184.67
2019-04-20T21:55:14.098Z,183.87
2019-04-20T21:59:32.066Z,184.20
2019-04-20T22:03:36.810Z,184.23
2019-04-20T22:07:48.738Z,180.67
2019-04-20T22:12:00.193Z,184.67
2019-04-20T22:16:13.129Z,196.77
2019-04-20T22:20:33.635Z,183.40
2019-04-20T22:24:51.959Z,180.47
2019-04-20T22:28:52.180Z,184.50
2019-04-20T22:33:04.293Z,195.63
2019-04-20T22:37:21.254Z,183.03
2019-04-20T22:41:27.909Z,181.97
2019-04-20T22:45:41.206Z,183.63
2019-04-20T22:50:12.915Z,182.03
2019-04-20T22:54:21.905Z,179.97
2019-04-20T22:58:28.897Z,185.07
2019-04-20T23:02:31.526Z,184.23
2019-04-20T23:06:46.252Z,181.83
2019-04-20T23:10:55.536Z,186.17
2019-04-20T23:15:08.243Z,191.13
2019-04-20T23:19:33.926Z,185.53
2019-04-20T23:23:32.155Z,180.77
2019-04-20T23:27:43.834Z,181.37
2019-04-20T23:32:00.233Z,184.83
2019-04-20T23:36:08.115Z,185.10
2019-04-20T23:40:23.613Z,179.63
2019-04-20T23:44:56.248Z,181.17
2019-04-20T23:49:06.589Z,184.20
2019-04-20T23:53:32.970Z,180.80
2019-04-20T23:57:31.609Z,178.33
